Terminal Aerodrome Forecast
Issued by NWS

Home | Current Version | Previous Version | Text Only | Print | Product List | Glossary On
Versions: 1 2 3 4 5 6 7 8 9 10 11 12 13 14 15 16 17 18 19 20 21 22 23 24 25 26 27 28 29 30 31 32 33
016
FTAK31 PAFA 201858 AAB
TAFAFA
TAF AMD
PAFA 201858Z 2019/2124 25005KT P6SM -SN BKN030 OVC050
      TEMPO 2019/2021 5SM -SN BR BKN030
     FM202200 25004KT P6SM -SN SCT030 OVC050
     FM211600 00000KT P6SM VCFG SCT050=

USA.gov is the U.S. government's official web portal to all federal, state and local government web resources and services.